PADL/DLG METAR and TAF weather

Enter ICAO airport designator
Station Type Date Time Source
PADL METAR 2018/12/19 02:56 UTC NOAA

PADL 190256Z 00000KT 10SM CLR M22/M24 A2956 RMK AO2 SNE0157 SLP016 60000 T12171239 51002


Station Type Date Time Source
PADL Decoded METAR 2018/12/19 02:56 UTC NOAA

Dillingham, Dillingham Airport, AK, United States (PADL) 59-03N 158-31W 29M
Dec 18, 2018 - 09:56 PM EST / 2018.12.19 0256 UTC
Wind: Calm:0
Visibility: 10 mile(s):0
Sky conditions: clear
Temperature: -7.1 F (-21.7 C)
Dew Point: -11.0 F (-23.9 C)
Relative Humidity: 82%
Pressure (altimeter): 29.56 in. Hg (1001 hPa)
Pressure tendency: 0.01 inches (0.2 hPa) higher than three hours ago
ob: PADL 190256Z 00000KT 10SM CLR M22/M24 A2956 RMK AO2 SNE0157 SLP016 60000 T12171239 51002
cycle: 3

Station Type Date Time Source
PADL TAF 2018/12/18 18:42 UTC NOAA

TAF PADL 181740Z 1818/1918 33003KT P6SM FEW003


Example: see airport list